createdAt,value
2022-11-18T00:00:42.060Z,90.30
2022-11-18T00:03:16.180Z,90.50
2022-11-18T00:05:56.171Z,90.70
2022-11-18T00:08:28.168Z,90.90
2022-11-18T00:11:08.497Z,91.00
2022-11-18T00:13:59.009Z,91.30
2022-11-18T00:16:32.132Z,91.50
2022-11-18T00:19:04.039Z,91.70
2022-11-18T00:21:38.190Z,91.90
2022-11-18T00:24:10.205Z,92.40
2022-11-18T00:26:42.053Z,92.30
2022-11-18T00:29:14.416Z,92.50
2022-11-18T00:31:54.994Z,92.70
2022-11-18T00:34:27.286Z,92.90
2022-11-18T00:36:59.121Z,93.10
2022-11-18T00:39:36.206Z,93.20
2022-11-18T00:42:26.806Z,93.40
2022-11-18T00:44:58.828Z,93.60
2022-11-18T00:47:31.933Z,93.70
2022-11-18T00:50:06.963Z,93.90
2022-11-18T00:52:38.933Z,94.00
2022-11-18T00:55:10.845Z,94.10
2022-11-18T00:57:42.755Z,94.30
2022-11-18T01:00:15.164Z,94.50
2022-11-18T01:02:51.596Z,94.80
2022-11-18T01:05:26.026Z,95.00
2022-11-18T01:07:57.857Z,95.20
2022-11-18T01:10:35.882Z,95.30
2022-11-18T01:13:22.570Z,95.50
2022-11-18T01:15:56.716Z,95.60
2022-11-18T01:18:33.678Z,95.60
2022-11-18T01:21:07.520Z,95.80
2022-11-18T01:23:39.377Z,95.90
2022-11-18T01:26:13.607Z,96.20
2022-11-18T01:28:45.943Z,96.20
2022-11-18T01:31:19.369Z,96.30
2022-11-18T01:33:52.702Z,96.40
2022-11-18T01:36:26.058Z,96.50
2022-11-18T01:38:57.733Z,96.60
2022-11-18T01:41:29.576Z,96.40
2022-11-18T01:44:04.288Z,96.60
2022-11-18T01:46:36.083Z,96.70
2022-11-18T01:49:11.540Z,96.90
2022-11-18T01:51:49.099Z,97.10
2022-11-18T01:54:25.465Z,97.20
2022-11-18T01:57:03.429Z,97.30
2022-11-18T01:59:37.564Z,97.40
2022-11-18T02:02:13.912Z,97.40
2022-11-18T02:04:50.710Z,97.50
2022-11-18T02:07:22.886Z,97.50
2022-11-18T02:09:57.842Z,97.60
2022-11-18T02:12:30.038Z,97.90
2022-11-18T02:15:03.531Z,97.70
2022-11-18T02:17:46.595Z,97.80
2022-11-18T02:20:31.071Z,98.00
2022-11-18T02:23:48.505Z,98.00
2022-11-18T02:26:43.675Z,98.10
2022-11-18T02:29:19.610Z,98.10
2022-11-18T02:31:57.756Z,98.20
2022-11-18T02:34:40.971Z,98.50
2022-11-18T02:37:19.139Z,98.90
2022-11-18T02:39:58.164Z,99.20
2022-11-18T02:42:33.169Z,99.50
2022-11-18T02:45:08.972Z,99.70
2022-11-18T02:47:44.930Z,99.80
2022-11-18T02:50:21.226Z,99.90
2022-11-18T02:52:57.415Z,99.90
2022-11-18T02:55:33.135Z,99.90
2022-11-18T02:58:06.459Z,99.90
2022-11-18T03:00:39.643Z,99.90
2022-11-18T03:03:29.165Z,99.90
2022-11-18T03:06:09.354Z,99.90
2022-11-18T03:08:47.307Z,99.90
2022-11-18T03:11:22.816Z,99.90
2022-11-18T03:14:07.314Z,99.90
2022-11-18T03:16:45.669Z,99.90
2022-11-18T03:19:26.487Z,99.90
2022-11-18T03:22:07.841Z,99.90
2022-11-18T03:24:45.655Z,99.90
2022-11-18T03:27:22.086Z,99.90
2022-11-18T03:29:59.748Z,99.90
2022-11-18T03:32:38.440Z,99.90
2022-11-18T03:35:15.723Z,99.90
2022-11-18T03:37:50.502Z,99.90
2022-11-18T03:40:26.115Z,99.90
2022-11-18T03:43:03.646Z,99.90
2022-11-18T03:45:40.329Z,99.90
2022-11-18T03:48:16.492Z,99.90
2022-11-18T03:50:52.441Z,99.90
2022-11-18T03:53:27.766Z,99.90
2022-11-18T03:56:06.635Z,99.90
2022-11-18T03:58:43.790Z,99.90
2022-11-18T04:01:19.136Z,99.90
2022-11-18T04:03:52.339Z,99.90
2022-11-18T04:06:30.402Z,99.90
2022-11-18T04:09:10.797Z,99.90
2022-11-18T04:12:05.051Z,99.90
2022-11-18T04:14:38.760Z,99.90
2022-11-18T04:17:12.541Z,99.90
2022-11-18T04:19:45.729Z,99.90
2022-11-18T04:22:19.211Z,99.90
2022-11-18T04:24:50.832Z,99.90
2022-11-18T04:27:22.639Z,99.90
2022-11-18T04:29:54.459Z,99.90
2022-11-18T04:32:26.308Z,99.90
2022-11-18T04:34:59.455Z,99.90
2022-11-18T04:37:31.347Z,99.90
2022-11-18T04:40:03.871Z,99.90
2022-11-18T04:42:35.738Z,99.90
2022-11-18T04:45:08.877Z,99.90
2022-11-18T04:47:40.728Z,99.90
2022-11-18T04:50:13.887Z,99.90
2022-11-18T04:52:45.725Z,99.90
2022-11-18T04:55:17.499Z,99.90
2022-11-18T04:57:49.256Z,99.90
2022-11-18T05:00:22.399Z,99.90
2022-11-18T05:02:54.405Z,99.90
2022-11-18T05:05:27.524Z,99.90
2022-11-18T05:07:59.451Z,99.90
2022-11-18T05:10:31.239Z,99.90
2022-11-18T05:13:03.137Z,99.90
2022-11-18T05:15:34.940Z,99.90
2022-11-18T05:18:06.737Z,99.90
2022-11-18T05:20:41.735Z,99.90
2022-11-18T05:23:13.717Z,99.90
2022-11-18T05:25:45.683Z,99.90
2022-11-18T05:28:17.472Z,99.90
2022-11-18T05:30:49.377Z,99.90
2022-11-18T05:33:21.378Z,99.90
2022-11-18T05:35:55.348Z,99.90
2022-11-18T05:38:27.311Z,99.90
2022-11-18T05:40:59.195Z,99.90
2022-11-18T05:43:31.655Z,99.90
2022-11-18T05:46:04.336Z,99.90
2022-11-18T05:48:36.120Z,99.90
2022-11-18T05:51:09.262Z,99.90
2022-11-18T05:53:41.177Z,99.90
2022-11-18T05:56:19.015Z,99.90
2022-11-18T05:58:50.958Z,99.90
2022-11-18T06:01:27.289Z,99.90
2022-11-18T06:04:01.071Z,99.90
2022-11-18T06:06:34.725Z,99.90
2022-11-18T06:09:08.499Z,99.90
2022-11-18T06:11:42.699Z,99.90
2022-11-18T06:14:19.521Z,99.90
2022-11-18T06:16:55.635Z,99.90
2022-11-18T06:19:27.576Z,99.90
2022-11-18T06:22:01.096Z,99.90
2022-11-18T06:24:33.322Z,99.90
2022-11-18T06:27:05.497Z,99.90
2022-11-18T06:29:37.318Z,99.90
2022-11-18T06:32:09.261Z,99.90
2022-11-18T06:34:41.884Z,99.90
2022-11-18T06:37:17.350Z,99.90
2022-11-18T06:39:49.213Z,99.90
2022-11-18T06:42:40.438Z,99.90
2022-11-18T06:45:12.277Z,99.90
2022-11-18T06:47:44.194Z,99.90
2022-11-18T06:50:16.627Z,99.90
2022-11-18T06:52:49.841Z,99.90
2022-11-18T06:55:21.924Z,99.90
2022-11-18T06:57:56.062Z,99.90
2022-11-18T07:00:27.856Z,99.90
2022-11-18T07:02:59.848Z,99.90
2022-11-18T07:05:31.724Z,99.90
2022-11-18T07:08:05.131Z,99.90
2022-11-18T07:10:36.777Z,99.90
2022-11-18T07:13:08.625Z,99.90
2022-11-18T07:15:40.433Z,99.90
2022-11-18T07:18:12.325Z,99.90
2022-11-18T07:20:44.347Z,99.90
2022-11-18T07:23:17.557Z,99.90
2022-11-18T07:25:49.402Z,99.90
2022-11-18T07:28:21.268Z,99.90
2022-11-18T07:30:53.048Z,99.90
2022-11-18T07:33:24.836Z,99.90
2022-11-18T07:35:56.689Z,99.90
2022-11-18T07:38:30.041Z,99.90
2022-11-18T07:41:05.906Z,99.90
2022-11-18T07:43:37.751Z,99.90
2022-11-18T07:46:14.157Z,99.90
2022-11-18T07:48:48.192Z,99.90
2022-11-18T07:51:21.403Z,99.90
2022-11-18T07:53:54.774Z,99.90
2022-11-18T07:56:27.007Z,99.90
2022-11-18T07:58:58.967Z,99.90
2022-11-18T08:01:31.387Z,99.90
2022-11-18T08:04:07.725Z,99.90
2022-11-18T08:06:40.467Z,99.90
2022-11-18T08:09:16.797Z,99.90
2022-11-18T08:11:48.869Z,99.90
2022-11-18T08:14:22.762Z,99.90
2022-11-18T08:16:54.578Z,99.90
2022-11-18T08:19:26.525Z,99.90
2022-11-18T08:21:58.319Z,99.90
2022-11-18T08:24:31.482Z,99.90
2022-11-18T08:27:03.264Z,99.90
2022-11-18T08:29:35.075Z,99.90
2022-11-18T08:32:06.897Z,99.90
2022-11-18T08:34:38.782Z,99.90
2022-11-18T08:37:10.595Z,99.90
2022-11-18T08:39:43.780Z,99.90
2022-11-18T08:42:15.686Z,99.90
2022-11-18T08:44:47.679Z,99.90
2022-11-18T08:47:19.714Z,99.90
2022-11-18T08:49:54.699Z,99.90
2022-11-18T08:52:26.598Z,99.90
2022-11-18T08:54:59.849Z,99.90
2022-11-18T08:57:31.653Z,99.90
2022-11-18T09:00:04.409Z,99.90
2022-11-18T09:02:39.338Z,99.90
2022-11-18T09:05:11.186Z,99.90
2022-11-18T09:07:43.067Z,99.90
2022-11-18T09:10:16.704Z,99.90
2022-11-18T09:12:48.543Z,99.90
2022-11-18T09:15:23.999Z,99.90
2022-11-18T09:17:56.646Z,99.90
2022-11-18T09:20:28.417Z,99.90
2022-11-18T09:23:00.219Z,99.90
2022-11-18T09:25:33.449Z,99.90
2022-11-18T09:28:07.809Z,99.90
2022-11-18T09:30:39.570Z,99.90
2022-11-18T09:33:11.361Z,99.90
2022-11-18T09:35:44.121Z,99.90
2022-11-18T09:38:16.030Z,99.90
2022-11-18T09:41:00.632Z,99.90
2022-11-18T09:43:45.974Z,99.90
2022-11-18T09:46:26.804Z,99.90
2022-11-18T09:49:17.792Z,99.90
2022-11-18T09:51:52.318Z,99.90
2022-11-18T09:54:26.944Z,99.90
2022-11-18T09:57:00.433Z,99.90
2022-11-18T09:59:33.144Z,99.90
2022-11-18T10:02:34.841Z,99.90
2022-11-18T10:05:15.987Z,99.90
2022-11-18T10:08:05.758Z,99.90
2022-11-18T10:10:47.129Z,99.90
2022-11-18T10:13:32.268Z,99.90
2022-11-18T10:16:15.713Z,99.90
2022-11-18T10:19:00.307Z,99.90
2022-11-18T10:21:46.477Z,99.90
2022-11-18T10:24:21.010Z,99.90
2022-11-18T10:26:56.485Z,99.90
2022-11-18T10:29:31.977Z,99.90
2022-11-18T10:32:05.717Z,99.90
2022-11-18T10:34:50.579Z,99.90
2022-11-18T10:37:38.680Z,99.90
2022-11-18T10:40:25.451Z,99.90
2022-11-18T10:42:57.476Z,99.90
2022-11-18T10:45:32.709Z,99.90
2022-11-18T10:48:10.040Z,99.90
2022-11-18T10:53:33.712Z,99.90
2022-11-18T10:56:08.275Z,99.90
2022-11-18T10:59:04.525Z,99.90
2022-11-18T11:01:46.200Z,99.90
2022-11-18T11:04:29.161Z,99.90
2022-11-18T11:07:17.289Z,99.90
2022-11-18T11:10:09.576Z,99.90
2022-11-18T11:12:49.990Z,99.90
2022-11-18T11:15:34.147Z,99.90
2022-11-18T11:18:39.535Z,99.90
2022-11-18T11:21:15.370Z,99.90
2022-11-18T11:23:54.407Z,99.90
2022-11-18T11:30:15.669Z,99.90
2022-11-18T11:33:22.115Z,99.90
2022-11-18T11:36:21.721Z,99.90
2022-11-18T11:39:19.709Z,99.90
2022-11-18T11:42:09.517Z,99.90
2022-11-18T11:45:00.812Z,99.90
2022-11-18T11:47:47.459Z,99.90
2022-11-18T11:50:26.758Z,99.90
2022-11-18T11:53:16.082Z,99.90
2022-11-18T11:55:59.891Z,99.90
2022-11-18T11:58:50.580Z,99.90
2022-11-18T12:01:33.966Z,99.90
2022-11-18T12:04:32.649Z,99.90
2022-11-18T12:07:14.385Z,99.90
2022-11-18T12:10:08.920Z,99.90
2022-11-18T12:12:52.000Z,99.90
2022-11-18T12:15:36.204Z,99.90
2022-11-18T12:18:16.194Z,99.90
2022-11-18T12:20:50.032Z,99.90
2022-11-18T12:23:26.709Z,99.90
2022-11-18T12:26:09.934Z,99.90
2022-11-18T12:28:43.697Z,99.90
2022-11-18T12:31:33.339Z,99.90
2022-11-18T12:34:19.069Z,99.90
2022-11-18T12:36:52.088Z,99.90
2022-11-18T12:39:59.720Z,99.90
2022-11-18T12:43:03.258Z,99.90
2022-11-18T12:45:54.289Z,99.90
2022-11-18T12:48:38.946Z,99.90
2022-11-18T12:51:40.573Z,99.90
2022-11-18T12:54:34.171Z,99.90
2022-11-18T12:57:24.558Z,99.90
2022-11-18T12:59:58.168Z,99.90
2022-11-18T13:02:30.578Z,99.90
2022-11-18T13:05:08.654Z,99.90
2022-11-18T13:08:03.554Z,99.90
2022-11-18T13:10:39.166Z,99.90
2022-11-18T13:13:22.899Z,99.90
2022-11-18T13:16:38.270Z,99.90
2022-11-18T13:19:20.739Z,99.90
2022-11-18T13:22:17.593Z,99.90
2022-11-18T13:24:51.554Z,99.90
2022-11-18T13:27:57.648Z,99.90
2022-11-18T13:30:34.130Z,99.90
2022-11-18T13:33:11.724Z,99.90
2022-11-18T13:35:49.636Z,99.90
2022-11-18T13:38:28.884Z,99.90
2022-11-18T13:41:15.032Z,99.90
2022-11-18T13:43:54.301Z,99.90
2022-11-18T13:46:32.091Z,99.90
2022-11-18T13:52:19.415Z,99.90
2022-11-18T13:54:53.368Z,99.90
2022-11-18T13:57:28.261Z,99.90
2022-11-18T14:00:05.505Z,99.90
2022-11-18T14:02:46.260Z,99.90
2022-11-18T14:05:21.892Z,99.90
2022-11-18T14:08:01.258Z,99.90
2022-11-18T14:10:42.186Z,99.90
2022-11-18T14:13:24.597Z,99.90
2022-11-18T14:15:58.716Z,99.90
2022-11-18T14:18:32.934Z,99.90
2022-11-18T14:21:06.308Z,99.90
2022-11-18T14:23:44.872Z,99.90
2022-11-18T14:26:27.440Z,99.90
2022-11-18T14:29:03.292Z,99.90
2022-11-18T14:31:35.210Z,99.90
2022-11-18T14:34:27.245Z,99.90
2022-11-18T14:37:00.529Z,99.90
2022-11-18T14:39:37.160Z,99.90
2022-11-18T14:42:13.356Z,99.90
2022-11-18T14:44:45.135Z,99.90
2022-11-18T14:47:23.133Z,99.90
2022-11-18T14:49:55.425Z,99.90
2022-11-18T14:52:28.779Z,99.90
2022-11-18T14:55:00.483Z,99.90
2022-11-18T14:57:32.406Z,99.90
2022-11-18T15:00:05.386Z,99.90
2022-11-18T15:02:37.264Z,99.90
2022-11-18T15:05:09.545Z,99.90
2022-11-18T15:07:45.444Z,99.90
2022-11-18T15:10:18.178Z,99.90
2022-11-18T15:12:50.016Z,99.90
2022-11-18T15:15:23.975Z,99.90
2022-11-18T15:17:55.822Z,99.90
2022-11-18T15:20:28.124Z,99.90
2022-11-18T15:23:01.310Z,99.90
2022-11-18T15:25:33.209Z,99.90
2022-11-18T15:28:05.008Z,99.90
2022-11-18T15:30:36.874Z,99.90
2022-11-18T15:33:19.683Z,99.90
2022-11-18T15:35:51.517Z,99.90
2022-11-18T15:38:24.678Z,99.90
2022-11-18T15:40:57.729Z,99.90
2022-11-18T15:43:29.619Z,99.90
2022-11-18T15:46:01.462Z,99.90
2022-11-18T15:48:40.959Z,99.90
2022-11-18T15:51:13.074Z,99.90
2022-11-18T15:53:46.278Z,99.90
2022-11-18T15:56:27.102Z,99.90
2022-11-18T15:59:04.079Z,99.90
2022-11-18T16:01:40.126Z,99.90
2022-11-18T16:04:13.590Z,99.90
2022-11-18T16:06:45.571Z,99.90
2022-11-18T16:09:19.224Z,99.90
2022-11-18T16:12:15.803Z,99.90
2022-11-18T16:15:12.336Z,99.90
2022-11-18T16:17:50.403Z,99.90
2022-11-18T16:20:22.263Z,99.90
2022-11-18T16:22:56.440Z,99.90
2022-11-18T16:25:42.614Z,99.90
2022-11-18T16:28:17.729Z,99.90
2022-11-18T16:31:08.985Z,99.90
2022-11-18T16:33:41.383Z,99.90
2022-11-18T16:36:24.747Z,99.90
2022-11-18T16:39:07.160Z,99.90
2022-11-18T16:41:44.823Z,99.90
2022-11-18T16:44:25.266Z,99.90
2022-11-18T16:46:57.978Z,99.90
2022-11-18T16:49:29.765Z,99.90
2022-11-18T16:52:01.641Z,99.90
2022-11-18T16:54:33.916Z,99.90
2022-11-18T16:57:07.200Z,99.90
2022-11-18T16:59:39.313Z,99.90
2022-11-18T17:02:13.079Z,99.90
2022-11-18T17:04:45.192Z,99.90
2022-11-18T17:07:20.654Z,99.90
2022-11-18T17:09:52.904Z,99.90
2022-11-18T17:12:26.146Z,99.90
2022-11-18T17:14:58.053Z,99.90
2022-11-18T17:17:30.055Z,99.90
2022-11-18T17:20:03.278Z,99.90
2022-11-18T17:22:35.255Z,99.90
2022-11-18T17:25:14.941Z,99.90
2022-11-18T17:27:48.956Z,99.90
2022-11-18T17:30:27.752Z,99.90
2022-11-18T17:33:00.985Z,99.90
2022-11-18T17:35:33.343Z,99.90
2022-11-18T17:38:05.246Z,99.90
2022-11-18T17:40:37.289Z,99.90
2022-11-18T17:43:10.756Z,99.90
2022-11-18T17:45:42.615Z,99.90
2022-11-18T17:48:14.508Z,99.90
2022-11-18T17:50:46.921Z,99.90
2022-11-18T17:53:19.604Z,99.90
2022-11-18T17:55:51.506Z,99.90
2022-11-18T17:58:25.699Z,99.90
2022-11-18T18:01:05.902Z,99.90
2022-11-18T18:03:38.345Z,99.90
2022-11-18T18:06:11.497Z,99.90
2022-11-18T18:08:43.525Z,99.90
2022-11-18T18:11:17.842Z,99.90
2022-11-18T18:14:09.852Z,99.90
2022-11-18T18:16:44.374Z,99.90
2022-11-18T18:19:18.584Z,99.90
2022-11-18T18:21:50.638Z,99.90
2022-11-18T18:24:22.927Z,99.90
2022-11-18T18:26:55.127Z,99.90
2022-11-18T18:29:28.287Z,99.90
2022-11-18T18:32:00.281Z,99.90
2022-11-18T18:34:32.094Z,99.90
2022-11-18T18:37:04.031Z,99.90
2022-11-18T18:39:35.899Z,99.90
2022-11-18T18:42:07.728Z,99.90
2022-11-18T18:44:59.619Z,99.90
2022-11-18T18:47:34.577Z,99.90
2022-11-18T18:50:06.876Z,99.90
2022-11-18T18:52:39.439Z,99.90
2022-11-18T18:55:11.220Z,99.90
2022-11-18T18:57:42.974Z,99.90
2022-11-18T19:00:17.397Z,99.90
2022-11-18T19:02:49.188Z,99.90
2022-11-18T19:05:33.277Z,99.90
2022-11-18T19:08:12.809Z,99.90
2022-11-18T19:10:51.060Z,99.90
2022-11-18T19:13:22.903Z,99.90
2022-11-18T19:15:56.170Z,99.90
2022-11-18T19:18:27.999Z,99.90
2022-11-18T19:20:59.828Z,99.90
2022-11-18T19:23:31.661Z,99.90
2022-11-18T19:26:03.460Z,99.90
2022-11-18T19:28:38.506Z,99.90
2022-11-18T19:31:12.266Z,99.90
2022-11-18T19:33:44.199Z,99.90
2022-11-18T19:36:16.235Z,99.90
2022-11-18T19:38:50.114Z,99.90
2022-11-18T19:41:22.185Z,99.90
2022-11-18T19:43:57.054Z,99.90
2022-11-18T19:46:31.715Z,99.90
2022-11-18T19:49:03.740Z,99.90
2022-11-18T19:51:36.501Z,99.90
2022-11-18T19:54:09.914Z,99.90
2022-11-18T19:56:44.738Z,99.90
2022-11-18T19:59:16.705Z,99.90
2022-11-18T20:01:50.084Z,99.90
2022-11-18T20:04:22.504Z,99.90
2022-11-18T20:06:54.364Z,99.90
2022-11-18T20:09:26.368Z,99.90
2022-11-18T20:11:58.209Z,99.90
2022-11-18T20:14:29.989Z,99.90
2022-11-18T20:17:06.116Z,99.90
2022-11-18T20:19:38.148Z,99.90
2022-11-18T20:22:27.025Z,99.90
2022-11-18T20:25:02.652Z,99.90
2022-11-18T20:27:39.318Z,99.90
2022-11-18T20:30:14.499Z,99.90
2022-11-18T20:32:55.406Z,99.90
2022-11-18T20:35:27.372Z,99.90
2022-11-18T20:37:59.242Z,99.90
2022-11-18T20:40:32.169Z,99.90
2022-11-18T20:43:12.915Z,99.90
2022-11-18T20:45:55.790Z,99.90
2022-11-18T20:48:30.372Z,99.90
2022-11-18T20:51:04.943Z,99.90
2022-11-18T20:53:42.235Z,99.90
2022-11-18T20:56:25.174Z,99.90
2022-11-18T20:59:00.931Z,99.90
2022-11-18T21:01:34.148Z,99.90
2022-11-18T21:04:11.193Z,99.90
2022-11-18T21:06:43.117Z,99.90
2022-11-18T21:09:17.181Z,99.90
2022-11-18T21:11:49.213Z,99.90
2022-11-18T21:14:25.817Z,99.90
2022-11-18T21:17:00.821Z,99.90
2022-11-18T21:19:34.217Z,99.90
2022-11-18T21:22:05.873Z,99.90
2022-11-18T21:24:37.942Z,99.90
2022-11-18T21:27:10.121Z,99.90
2022-11-18T21:29:42.807Z,99.90
2022-11-18T21:32:14.692Z,99.90
2022-11-18T21:34:50.277Z,99.90
2022-11-18T21:37:22.092Z,99.90
2022-11-18T21:39:53.897Z,99.90
2022-11-18T21:42:27.996Z,99.90
2022-11-18T21:44:59.768Z,99.90
2022-11-18T21:47:31.606Z,99.90
2022-11-18T21:50:05.941Z,99.90
2022-11-18T21:52:37.897Z,99.90
2022-11-18T21:55:10.008Z,99.90
2022-11-18T21:57:42.586Z,99.90
2022-11-18T22:00:15.115Z,99.90
2022-11-18T22:02:46.974Z,99.90
2022-11-18T22:05:20.226Z,99.90
2022-11-18T22:07:52.000Z,99.90
2022-11-18T22:10:23.774Z,99.90
2022-11-18T22:12:55.594Z,99.90
2022-11-18T22:15:27.387Z,99.90
2022-11-18T22:17:59.176Z,99.90
2022-11-18T22:20:32.323Z,99.90
2022-11-18T22:23:04.228Z,99.90
2022-11-18T22:25:36.082Z,99.90
2022-11-18T22:28:07.950Z,99.90
2022-11-18T22:30:39.875Z,99.90
2022-11-18T22:33:11.676Z,99.90
2022-11-18T22:35:45.595Z,99.90
2022-11-18T22:38:17.378Z,99.90
2022-11-18T22:40:49.161Z,99.90
2022-11-18T22:43:20.980Z,99.90
2022-11-18T22:45:59.796Z,99.90
2022-11-18T22:48:31.874Z,99.90
2022-11-18T22:51:06.245Z,99.90
2022-11-18T22:53:38.276Z,99.90
2022-11-18T22:56:11.461Z,99.90
2022-11-18T22:58:43.675Z,99.90
2022-11-18T23:01:17.817Z,99.90
2022-11-18T23:03:51.789Z,99.90
2022-11-18T23:06:24.981Z,99.90
2022-11-18T23:08:58.361Z,99.90
2022-11-18T23:11:49.089Z,99.90
2022-11-18T23:14:20.928Z,99.90
2022-11-18T23:16:52.719Z,99.90
2022-11-18T23:19:24.534Z,99.90
2022-11-18T23:21:57.688Z,99.90
2022-11-18T23:24:29.486Z,99.90
2022-11-18T23:27:01.392Z,99.90
2022-11-18T23:29:33.383Z,99.90
2022-11-18T23:32:05.671Z,99.90
2022-11-18T23:34:38.096Z,99.90
2022-11-18T23:37:11.314Z,99.90
2022-11-18T23:39:43.480Z,99.90
2022-11-18T23:42:15.336Z,99.90
2022-11-18T23:44:47.242Z,99.90
2022-11-18T23:47:19.139Z,99.90
2022-11-18T23:49:50.930Z,99.90
2022-11-18T23:52:24.150Z,99.90
2022-11-18T23:54:59.614Z,99.90
2022-11-18T23:57:31.508Z,99.90
